Time;durP1;ratioP1;P1;durP2;ratioP2;P2;SDS_P1;SDS_P2;PMS_P1;PMS_P2;Temp;Humidity;BMP_temperature;BMP_pressure;BME280_temperature;BME280_humidity;BME280_pressure;Samples;Min_cycle;Max_cycle;Signal;HPM_P1;HPM_P2
2021/01/11 00:00:41;;;;;;;115.68;38.58;;;4.30;99.90;;;;;;5043494;28;20041;-78
2021/01/11 00:03:07;;;;;;;102.78;40.00;;;4.30;99.90;;;;;;5027339;28;20128;-77
2021/01/11 00:05:33;;;;;;;107.45;39.78;;;4.30;99.90;;;;;;5027590;28;20131;-77
2021/01/11 00:07:59;;;;;;;108.57;40.72;;;4.30;99.90;;;;;;5028245;28;20053;-77
2021/01/11 00:10:25;;;;;;;96.82;38.55;;;4.30;99.90;;;;;;5029196;28;20451;-75
2021/01/11 00:12:51;;;;;;;122.22;38.92;;;4.30;99.90;;;;;;5028597;28;20041;-77
2021/01/11 00:15:17;;;;;;;106.80;39.47;;;4.30;99.90;;;;;;5024994;28;20095;-77
2021/01/11 00:17:43;;;;;;;123.05;40.85;;;4.20;99.90;;;;;;5027693;28;20484;-76
2021/01/11 00:20:10;;;;;;;107.97;38.17;;;4.30;99.90;;;;;;5023890;28;20667;-80
2021/01/11 00:22:36;;;;;;;101.93;38.67;;;4.30;99.90;;;;;;5027575;28;20074;-77
2021/01/11 00:25:04;;;;;;;104.82;38.70;;;4.30;99.90;;;;;;5021664;28;20408;-79
2021/01/11 00:27:30;;;;;;;88.90;36.20;;;4.40;99.90;;;;;;5017508;28;20708;-78
2021/01/11 00:29:55;;;;;;;104.50;39.83;;;4.40;99.90;;;;;;5021256;28;20167;-76
2021/01/11 00:32:22;;;;;;;89.47;35.85;;;4.40;99.90;;;;;;5022203;28;20045;-76
2021/01/11 00:34:48;;;;;;;95.72;38.28;;;4.40;99.90;;;;;;5019145;28;20061;-79
2021/01/11 00:37:14;;;;;;;91.93;37.35;;;4.40;99.90;;;;;;5003255;28;20912;-77
2021/01/11 00:39:40;;;;;;;97.20;37.65;;;4.40;99.90;;;;;;5023746;28;20107;-80
2021/01/11 00:42:06;;;;;;;91.90;39.13;;;4.40;99.90;;;;;;5022326;28;20045;-78
2021/01/11 00:44:32;;;;;;;93.63;37.28;;;4.40;99.90;;;;;;5022944;28;20054;-79
2021/01/11 00:47:02;;;;;;;88.78;36.70;;;4.40;99.90;;;;;;5015575;28;20552;-79
2021/01/11 00:49:29;;;;;;;90.20;36.67;;;4.40;99.90;;;;;;5013072;28;20467;-79
2021/01/11 00:51:55;;;;;;;79.60;35.78;;;4.40;99.90;;;;;;5021795;28;20041;-77
2021/01/11 00:54:22;;;;;;;83.28;36.42;;;4.40;99.90;;;;;;5017705;28;20041;-76
2021/01/11 00:56:49;;;;;;;78.38;34.17;;;4.40;99.90;;;;;;5018920;28;20494;-77
2021/01/11 00:59:15;;;;;;;84.90;37.13;;;4.40;99.90;;;;;;5016478;28;20072;-77
2021/01/11 01:01:50;;;;;;;84.70;38.63;;;4.40;99.90;;;;;;5018649;28;20117;-78
2021/01/11 01:04:17;;;;;;;84.78;36.10;;;4.40;99.90;;;;;;5017441;28;20034;-77
2021/01/11 01:06:43;;;;;;;84.07;35.72;;;4.40;99.90;;;;;;5018219;28;20038;-77
2021/01/11 01:09:09;;;;;;;97.47;39.58;;;4.40;99.90;;;;;;5017858;28;20030;-78
2021/01/11 01:11:39;;;;;;;102.80;38.05;;;4.40;99.90;;;;;;5021251;28;20370;-80
2021/01/11 01:14:06;;;;;;;100.15;40.05;;;4.50;99.90;;;;;;5015561;28;20396;-75
2021/01/11 01:16:32;;;;;;;88.22;37.03;;;4.30;99.90;;;;;;5018588;28;20041;-80
2021/01/11 01:18:59;;;;;;;101.18;39.80;;;4.40;99.90;;;;;;5020771;28;20041;-77
2021/01/11 01:21:26;;;;;;;98.15;40.30;;;4.30;99.90;;;;;;5020120;28;20053;-79
2021/01/11 01:23:52;;;;;;;81.07;36.20;;;4.30;99.90;;;;;;5018480;28;20492;-77
2021/01/11 01:26:18;;;;;;;95.72;38.72;;;4.30;99.90;;;;;;5017306;28;20602;-76
2021/01/11 01:28:44;;;;;;;107.25;40.58;;;4.30;99.90;;;;;;5020490;28;20042;-78
2021/01/11 01:31:11;;;;;;;87.95;37.83;;;4.30;99.90;;;;;;5020039;28;20052;-77
2021/01/11 01:33:38;;;;;;;96.30;41.50;;;4.30;99.90;;;;;;5021233;28;20042;-80
2021/01/11 01:36:04;;;;;;;91.03;38.38;;;4.30;99.90;;;;;;5017961;28;20037;-79
2021/01/11 01:38:30;;;;;;;86.28;36.70;;;4.30;99.90;;;;;;5034518;28;20068;-79
2021/01/11 01:40:57;;;;;;;92.93;41.05;;;4.30;99.90;;;;;;5014500;28;20501;-78
2021/01/11 01:43:22;;;;;;;80.72;36.95;;;4.30;99.90;;;;;;5015970;28;20136;-77
2021/01/11 01:45:49;;;;;;;89.38;38.80;;;4.30;99.90;;;;;;5017822;28;20184;-80
2021/01/11 01:48:15;;;;;;;92.88;39.63;;;4.30;99.90;;;;;;5022171;28;20037;-78
2021/01/11 01:50:41;;;;;;;99.70;40.08;;;4.20;99.90;;;;;;5025028;28;20508;-79
2021/01/11 01:53:08;;;;;;;94.93;40.20;;;4.20;99.90;;;;;;5018555;28;20045;-79
2021/01/11 01:55:36;;;;;;;96.97;39.83;;;4.20;99.90;;;;;;5022961;28;20033;-77
2021/01/11 01:58:04;;;;;;;87.90;38.78;;;4.20;99.90;;;;;;5027197;28;20034;-79
2021/01/11 02:00:31;;;;;;;90.07;38.15;;;4.10;99.90;;;;;;5041028;28;20071;-80
2021/01/11 02:02:57;;;;;;;88.15;37.80;;;4.10;99.90;;;;;;5038187;28;20049;-76
2021/01/11 02:05:23;;;;;;;95.75;38.00;;;4.10;99.90;;;;;;5011831;28;20088;-78
2021/01/11 02:08:10;;;;;;;102.10;40.95;;;4.10;99.90;;;;;;5037297;28;20061;-77
2021/01/11 02:10:47;;;;;;;102.32;41.88;;;4.10;99.90;;;;;;5028946;28;20103;-79
2021/01/11 02:13:38;;;;;;;88.00;34.85;;;4.10;99.90;;;;;;5022069;28;20053;-79
2021/01/11 02:16:33;;;;;;;94.72;38.25;;;4.10;99.90;;;;;;5023581;28;20053;-78
2021/01/11 02:19:14;;;;;;;104.50;40.53;;;4.10;99.90;;;;;;5028935;28;20038;-78
2021/01/11 02:22:02;;;;;;;88.15;36.35;;;4.10;99.90;;;;;;5023938;28;20187;-80
2021/01/11 02:25:07;;;;;;;99.43;38.70;;;4.10;99.90;;;;;;5021502;28;20037;-79
2021/01/11 02:27:40;;;;;;;98.50;35.63;;;4.00;99.90;;;;;;5026339;28;20046;-79
2021/01/11 02:30:16;;;;;;;74.20;34.83;;;4.10;99.90;;;;;;5016687;28;20152;-80
2021/01/11 02:32:49;;;;;;;83.40;36.42;;;4.10;99.90;;;;;;5033345;28;20052;-78
2021/01/11 02:35:18;;;;;;;92.03;36.08;;;4.10;99.90;;;;;;5021497;28;20045;-79
2021/01/11 02:37:46;;;;;;;86.05;37.83;;;4.00;99.90;;;;;;5026574;28;20091;-81
2021/01/11 02:40:12;;;;;;;83.72;37.40;;;4.00;99.90;;;;;;5044532;28;20057;-80
2021/01/11 02:42:38;;;;;;;87.50;38.78;;;4.00;99.90;;;;;;5028720;28;20041;-79
2021/01/11 02:45:07;;;;;;;80.45;35.42;;;4.00;99.90;;;;;;5023987;28;20460;-78
2021/01/11 02:47:48;;;;;;;91.78;40.22;;;4.10;99.90;;;;;;5019126;28;20104;-80
2021/01/11 02:50:24;;;;;;;83.13;36.67;;;4.10;99.90;;;;;;5036141;28;20085;-79
2021/01/11 02:53:04;;;;;;;80.25;36.63;;;4.10;99.90;;;;;;5020475;28;20046;-79
2021/01/11 02:56:03;;;;;;;83.28;38.20;;;4.00;99.90;;;;;;5025024;28;20078;-78
2021/01/11 02:59:05;;;;;;;79.68;36.70;;;4.10;99.90;;;;;;5002369;28;20057;-79
2021/01/11 03:01:42;;;;;;;80.80;35.90;;;4.10;99.90;;;;;;5000705;28;20444;-77
2021/01/11 03:04:10;;;;;;;90.05;38.38;;;4.10;99.90;;;;;;4984713;28;20221;-78
2021/01/11 03:06:36;;;;;;;76.65;36.80;;;4.10;99.90;;;;;;5001469;28;20046;-78
2021/01/11 03:09:07;;;;;;;81.28;37.17;;;4.10;99.90;;;;;;5003665;28;20050;-79
2021/01/11 03:11:36;;;;;;;72.65;37.08;;;4.10;99.90;;;;;;4999549;28;20042;-79
2021/01/11 03:14:04;;;;;;;78.03;37.75;;;4.10;99.90;;;;;;5001808;28;20088;-78
2021/01/11 03:16:30;;;;;;;77.80;36.03;;;4.20;99.90;;;;;;5003346;28;20053;-79
2021/01/11 03:18:55;;;;;;;83.15;37.63;;;4.20;99.90;;;;;;5002767;28;20050;-77
2021/01/11 03:21:21;;;;;;;74.07;36.55;;;4.20;99.90;;;;;;5000965;28;20069;-80
2021/01/11 03:23:47;;;;;;;78.70;36.53;;;4.20;99.90;;;;;;4988516;28;20045;-79
2021/01/11 03:26:22;;;;;;;67.82;32.17;;;4.20;99.90;;;;;;5000815;28;20548;-81
2021/01/11 03:28:47;;;;;;;85.38;37.22;;;4.20;99.90;;;;;;4982444;28;20147;-79
2021/01/11 03:31:13;;;;;;;87.43;39.08;;;4.20;99.90;;;;;;4984245;28;20455;-77
2021/01/11 03:33:39;;;;;;;83.30;39.10;;;4.20;99.90;;;;;;5002848;28;20056;-77
2021/01/11 03:36:05;;;;;;;79.13;38.17;;;4.20;99.90;;;;;;5013075;28;20058;-79
2021/01/11 03:38:31;;;;;;;83.28;38.38;;;4.20;99.90;;;;;;5018131;28;20041;-77
2021/01/11 03:41:04;;;;;;;84.25;39.65;;;4.10;99.90;;;;;;5022052;28;20044;-77
2021/01/11 03:43:31;;;;;;;75.43;35.50;;;4.10;99.90;;;;;;5018776;28;20057;-77
2021/01/11 03:45:57;;;;;;;81.47;39.22;;;4.10;99.90;;;;;;5016466;28;20049;-79
2021/01/11 03:48:25;;;;;;;82.78;37.38;;;4.10;99.90;;;;;;5017624;28;20033;-78
2021/01/11 03:50:51;;;;;;;76.75;36.53;;;4.10;99.90;;;;;;5014731;28;20087;-78
2021/01/11 03:53:17;;;;;;;71.25;34.78;;;4.10;99.90;;;;;;5020141;28;20083;-77
2021/01/11 03:55:43;;;;;;;86.10;35.83;;;4.10;99.90;;;;;;5018249;28;20120;-77
2021/01/11 03:58:09;;;;;;;71.53;35.78;;;4.10;99.90;;;;;;5018933;28;20038;-77
2021/01/11 04:00:35;;;;;;;79.65;36.40;;;4.10;99.90;;;;;;5020595;28;20038;-76
2021/01/11 04:03:05;;;;;;;71.07;34.60;;;4.10;99.90;;;;;;5033728;28;20075;-79
2021/01/11 04:05:32;;;;;;;73.57;35.95;;;4.10;99.90;;;;;;5017978;28;20037;-79
2021/01/11 04:07:58;;;;;;;77.53;37.03;;;4.10;99.90;;;;;;5018376;28;20465;-79
2021/01/11 04:10:24;;;;;;;63.10;33.13;;;4.10;99.90;;;;;;5021690;28;20041;-79
2021/01/11 04:12:50;;;;;;;67.75;34.83;;;4.20;99.90;;;;;;5032727;28;20045;-78
2021/01/11 04:15:16;;;;;;;69.78;36.65;;;4.20;99.90;;;;;;5021079;28;20136;-76
2021/01/11 04:17:43;;;;;;;66.13;33.33;;;4.20;99.90;;;;;;5016568;28;20124;-78
2021/01/11 04:20:09;;;;;;;65.90;34.88;;;4.20;99.90;;;;;;5004630;28;20045;-77
2021/01/11 04:22:35;;;;;;;72.60;32.65;;;4.20;99.90;;;;;;5023188;28;20386;-79
2021/01/11 04:25:01;;;;;;;62.50;34.05;;;4.20;99.90;;;;;;5017674;28;20056;-77
2021/01/11 04:27:26;;;;;;;65.72;33.42;;;4.20;99.90;;;;;;5019483;28;20045;-78
2021/01/11 04:29:52;;;;;;;62.47;32.05;;;4.30;99.90;;;;;;5016343;28;20389;-80
2021/01/11 04:32:18;;;;;;;66.75;35.30;;;4.30;99.90;;;;;;5023370;28;20120;-79
2021/01/11 04:34:44;;;;;;;64.32;35.65;;;4.30;99.90;;;;;;4992333;28;20069;-79
2021/01/11 04:37:10;;;;;;;74.63;36.05;;;4.30;99.90;;;;;;5022226;28;20048;-78
2021/01/11 04:39:37;;;;;;;66.78;34.38;;;4.30;99.90;;;;;;5021762;28;20476;-79
2021/01/11 04:42:08;;;;;;;64.13;33.33;;;4.30;99.90;;;;;;5014750;28;20042;-79
2021/01/11 04:44:36;;;;;;;61.03;31.38;;;4.30;99.90;;;;;;5022894;28;20053;-76
2021/01/11 04:47:04;;;;;;;67.43;34.47;;;4.30;99.90;;;;;;5019215;28;20041;-79
2021/01/11 04:49:30;;;;;;;67.80;32.10;;;4.40;99.90;;;;;;5016780;28;20037;-79
2021/01/11 04:51:57;;;;;;;66.80;36.53;;;4.30;99.90;;;;;;5013974;28;20045;-79
2021/01/11 04:54:25;;;;;;;70.35;35.88;;;4.30;99.90;;;;;;5022611;28;20033;-79
2021/01/11 04:56:51;;;;;;;63.90;33.50;;;4.30;99.90;;;;;;5018871;28;20154;-78
2021/01/11 04:59:18;;;;;;;56.85;30.90;;;4.30;99.90;;;;;;5020324;28;20034;-78
2021/01/11 05:01:51;;;;;;;72.10;36.63;;;4.30;99.90;;;;;;5020516;28;20580;-77
2021/01/11 05:04:17;;;;;;;65.18;33.53;;;4.30;99.90;;;;;;5021106;28;20064;-80
2021/01/11 05:06:46;;;;;;;75.15;35.30;;;4.30;99.90;;;;;;5022274;28;20109;-79
2021/01/11 05:09:15;;;;;;;68.82;34.42;;;4.30;99.90;;;;;;5016858;28;20753;-77
2021/01/11 05:11:41;;;;;;;67.85;34.47;;;4.30;99.90;;;;;;5016828;28;20041;-78
2021/01/11 05:14:08;;;;;;;70.25;35.92;;;4.30;99.90;;;;;;5020653;28;20548;-78
2021/01/11 05:16:35;;;;;;;80.20;35.95;;;4.30;99.90;;;;;;5021102;28;20081;-79
2021/01/11 05:19:23;;;;;;;66.43;35.88;;;4.30;99.90;;;;;;5015105;28;20049;-77
2021/01/11 05:21:50;;;;;;;68.20;33.20;;;4.30;99.90;;;;;;5015231;28;20054;-79
2021/01/11 05:24:31;;;;;;;69.55;33.38;;;4.30;99.90;;;;;;5020428;28;20076;-78
2021/01/11 05:26:59;;;;;;;68.35;35.13;;;4.30;99.90;;;;;;5019483;28;20060;-77
2021/01/11 05:29:25;;;;;;;64.82;33.80;;;4.30;99.90;;;;;;5019317;28;20116;-79
2021/01/11 05:31:59;;;;;;;73.13;36.50;;;4.30;99.90;;;;;;5016116;28;20636;-76
2021/01/11 05:34:45;;;;;;;74.70;35.40;;;4.40;99.90;;;;;;5033870;28;20582;-76
2021/01/11 05:37:37;;;;;;;61.45;34.75;;;4.30;99.90;;;;;;5010703;28;20065;-78
2021/01/11 05:40:05;;;;;;;56.10;31.00;;;4.30;99.90;;;;;;5014547;28;20042;-79
2021/01/11 05:42:31;;;;;;;67.13;36.28;;;4.30;99.90;;;;;;5017302;28;20839;-77
2021/01/11 05:45:12;;;;;;;68.90;34.20;;;4.30;99.90;;;;;;5020773;28;21460;-77
2021/01/11 05:47:57;;;;;;;72.38;34.92;;;4.30;99.90;;;;;;5016675;28;20052;-79
2021/01/11 05:50:26;;;;;;;55.20;29.55;;;4.30;99.90;;;;;;5017745;28;20049;-77
2021/01/11 05:52:52;;;;;;;66.88;34.17;;;4.30;99.90;;;;;;5021201;28;20468;-78
2021/01/11 05:55:23;;;;;;;67.30;34.33;;;4.40;99.90;;;;;;5035404;28;20132;-79
2021/01/11 05:57:54;;;;;;;66.90;35.15;;;4.30;99.90;;;;;;5025830;28;21419;-78
2021/01/11 06:00:22;;;;;;;65.22;33.88;;;4.40;99.90;;;;;;5026933;28;20111;-78
2021/01/11 06:02:49;;;;;;;77.05;33.88;;;4.30;99.90;;;;;;5024711;28;20045;-78
2021/01/11 06:05:18;;;;;;;72.10;35.03;;;4.40;99.90;;;;;;5009116;28;20095;-77
2021/01/11 06:07:45;;;;;;;77.68;37.25;;;4.30;99.90;;;;;;5028323;28;20029;-76
2021/01/11 06:10:12;;;;;;;77.63;36.40;;;4.30;99.90;;;;;;5027231;28;20117;-77
2021/01/11 06:12:39;;;;;;;73.72;35.15;;;4.30;99.90;;;;;;5024232;28;20604;-77
2021/01/11 06:15:17;;;;;;;80.30;36.42;;;4.30;99.90;;;;;;5026136;28;20068;-78
2021/01/11 06:17:46;;;;;;;81.22;38.33;;;4.30;99.90;;;;;;5006839;28;20446;-79
2021/01/11 06:20:24;;;;;;;82.85;36.30;;;4.30;99.90;;;;;;5027077;28;20037;-78
2021/01/11 06:22:50;;;;;;;78.38;35.72;;;4.30;99.90;;;;;;5025370;28;20396;-79
2021/01/11 06:25:18;;;;;;;72.53;35.92;;;4.30;99.90;;;;;;5025848;28;20037;-79
2021/01/11 06:28:04;;;;;;;82.10;37.15;;;4.30;99.90;;;;;;5026497;28;20068;-81
2021/01/11 06:30:46;;;;;;;63.95;34.03;;;4.30;99.90;;;;;;5025061;28;20046;-77
2021/01/11 06:33:16;;;;;;;69.18;34.10;;;4.30;99.90;;;;;;5026069;28;20116;-77
2021/01/11 06:35:43;;;;;;;81.90;37.38;;;4.30;99.90;;;;;;5026757;28;20048;-77
2021/01/11 06:38:21;;;;;;;87.53;38.42;;;4.30;99.90;;;;;;5028480;28;20057;-75
2021/01/11 06:40:52;;;;;;;73.07;33.40;;;4.30;99.90;;;;;;5020982;28;20766;-77
2021/01/11 06:43:21;;;;;;;71.65;36.28;;;4.30;99.90;;;;;;5030492;28;20176;-76
2021/01/11 06:45:47;;;;;;;74.75;35.97;;;4.30;99.90;;;;;;5021303;28;20143;-78
2021/01/11 06:48:18;;;;;;;65.05;30.75;;;4.40;99.90;;;;;;5031104;28;20045;-78
2021/01/11 06:50:46;;;;;;;78.93;36.10;;;4.40;99.90;;;;;;5029876;28;20103;-77
2021/01/11 06:53:12;;;;;;;71.30;36.92;;;4.40;99.90;;;;;;5026805;28;20513;-77
2021/01/11 06:55:39;;;;;;;88.40;38.88;;;4.30;99.90;;;;;;5029134;28;20072;-77
2021/01/11 06:58:05;;;;;;;85.88;38.13;;;4.30;99.90;;;;;;5027116;28;20050;-77
2021/01/11 07:00:34;;;;;;;85.95;39.63;;;4.30;99.90;;;;;;5027759;28;20046;-77
2021/01/11 07:03:01;;;;;;;85.65;38.92;;;4.20;99.90;;;;;;5027390;28;20106;-76
2021/01/11 07:05:33;;;;;;;79.10;37.20;;;4.20;99.90;;;;;;5026652;28;20052;-78
2021/01/11 07:08:14;;;;;;;76.53;37.58;;;4.30;99.90;;;;;;5026619;28;21081;-77
2021/01/11 07:10:41;;;;;;;81.25;36.85;;;4.30;99.90;;;;;;5028960;28;20073;-76
2021/01/11 07:13:19;;;;;;;87.65;38.45;;;4.20;99.90;;;;;;5028666;28;20045;-77
2021/01/11 07:15:51;;;;;;;83.40;38.97;;;4.20;99.90;;;;;;5026364;28;20377;-79
2021/01/11 07:18:39;;;;;;;79.88;38.30;;;4.30;99.90;;;;;;5010582;28;20049;-76
2021/01/11 07:21:14;;;;;;;83.72;39.15;;;4.20;99.90;;;;;;5026912;28;20091;-76
2021/01/11 07:23:40;;;;;;;74.35;33.63;;;4.20;99.90;;;;;;5010124;28;20188;-80
2021/01/11 07:26:21;;;;;;;90.45;39.15;;;4.20;99.90;;;;;;5027126;28;20052;-79
2021/01/11 07:28:59;;;;;;;83.78;36.72;;;4.20;99.90;;;;;;5026421;28;20515;-76
2021/01/11 07:31:36;;;;;;;84.55;36.45;;;4.20;99.90;;;;;;5028547;28;20404;-77
2021/01/11 07:34:18;;;;;;;98.18;41.08;;;4.20;99.90;;;;;;5030364;28;20330;-77
2021/01/11 07:36:49;;;;;;;88.38;37.15;;;4.20;99.90;;;;;;5036317;28;20041;-77
2021/01/11 07:39:30;;;;;;;97.05;42.65;;;4.20;99.90;;;;;;5027688;28;20045;-78
2021/01/11 07:42:05;;;;;;;86.78;37.92;;;4.20;99.90;;;;;;5027969;28;20049;-79
2021/01/11 07:44:35;;;;;;;91.00;38.55;;;4.20;99.90;;;;;;5025799;28;20053;-79
2021/01/11 07:47:04;;;;;;;91.57;38.75;;;4.20;99.90;;;;;;5029766;28;20524;-77
2021/01/11 07:49:33;;;;;;;110.15;41.28;;;4.20;99.90;;;;;;5028612;28;20059;-81
2021/01/11 07:52:17;;;;;;;90.57;36.38;;;4.20;99.90;;;;;;5022325;28;20053;-80
2021/01/11 07:54:44;;;;;;;108.70;42.90;;;4.20;99.90;;;;;;5023942;28;20037;-78
2021/01/11 07:57:15;;;;;;;81.38;35.55;;;4.20;99.90;;;;;;5025863;28;20053;-80
2021/01/11 07:59:42;;;;;;;100.00;41.30;;;4.20;99.90;;;;;;5025555;28;20056;-80
2021/01/11 08:02:15;;;;;;;97.90;40.92;;;4.20;99.90;;;;;;5027317;28;20033;-80
2021/01/11 08:04:42;;;;;;;95.00;39.53;;;4.20;99.90;;;;;;5028677;28;20056;-77
2021/01/11 08:07:13;;;;;;;92.50;41.15;;;4.10;99.90;;;;;;5011668;28;20042;-79
2021/01/11 08:09:40;;;;;;;86.78;35.47;;;4.20;99.90;;;;;;5026005;28;20057;-79
2021/01/11 08:12:11;;;;;;;104.28;40.33;;;4.20;99.90;;;;;;5026073;28;20046;-77
2021/01/11 08:14:39;;;;;;;83.53;35.22;;;4.20;99.90;;;;;;5028896;28;20049;-78
2021/01/11 08:17:06;;;;;;;98.50;41.20;;;4.20;99.90;;;;;;5028952;28;20037;-78
2021/01/11 08:19:33;;;;;;;105.20;43.60;;;4.20;99.90;;;;;;5026889;28;20048;-77
2021/01/11 08:22:00;;;;;;;103.05;41.75;;;4.20;99.90;;;;;;5010479;28;20088;-78
2021/01/11 08:24:27;;;;;;;94.47;37.67;;;4.20;99.90;;;;;;5043665;28;20041;-78
2021/01/11 08:27:14;;;;;;;97.47;39.17;;;4.20;99.90;;;;;;5043057;28;20119;-77
2021/01/11 08:29:41;;;;;;;76.90;33.13;;;4.20;99.90;;;;;;5029302;28;20042;-77
2021/01/11 08:32:11;;;;;;;85.03;37.13;;;4.20;99.90;;;;;;5029026;28;20128;-77
2021/01/11 08:34:40;;;;;;;85.72;37.55;;;4.20;99.90;;;;;;5028454;28;20443;-78
2021/01/11 08:37:28;;;;;;;81.05;32.55;;;4.20;99.90;;;;;;5027306;28;20041;-77
2021/01/11 08:39:59;;;;;;;97.93;39.50;;;4.20;99.90;;;;;;5024575;28;20077;-77
2021/01/11 08:42:30;;;;;;;96.88;39.35;;;4.20;99.90;;;;;;5027669;28;20400;-78
2021/01/11 08:45:33;;;;;;;83.88;38.08;;;4.20;99.90;;;;;;5029393;28;20041;-79
2021/01/11 08:48:00;;;;;;;75.18;35.55;;;4.20;99.90;;;;;;5027982;28;20118;-78
2021/01/11 08:50:26;;;;;;;105.75;40.33;;;4.20;99.90;;;;;;5028355;28;20040;-80
2021/01/11 08:52:52;;;;;;;99.53;40.97;;;4.20;99.90;;;;;;5035681;28;20133;-80
2021/01/11 08:55:21;;;;;;;86.20;38.92;;;4.20;99.90;;;;;;5015706;28;20038;-78
2021/01/11 08:57:57;;;;;;;93.28;39.25;;;4.20;99.90;;;;;;5029713;28;20038;-79
2021/01/11 09:00:23;;;;;;;90.10;37.97;;;4.20;99.90;;;;;;5026373;28;20041;-81
2021/01/11 09:02:49;;;;;;;77.68;34.88;;;4.20;99.90;;;;;;5023388;28;20050;-79
2021/01/11 09:05:22;;;;;;;83.18;37.40;;;4.20;99.90;;;;;;5023244;28;20492;-80
2021/01/11 09:07:49;;;;;;;89.15;39.25;;;4.20;99.90;;;;;;5028460;28;20037;-77
2021/01/11 09:10:24;;;;;;;87.45;39.15;;;4.30;99.90;;;;;;5027271;28;20056;-77
2021/01/11 09:12:51;;;;;;;;;;;4.30;99.90;;;;;;5011754;28;20053;-80
2021/01/11 09:15:27;;;;;;;81.93;35.78;;;4.30;99.90;;;;;;5022577;28;19921;-80
2021/01/11 09:18:03;;;;;;;78.22;34.33;;;4.30;99.90;;;;;;5026801;28;20385;-78
2021/01/11 09:20:29;;;;;;;78.85;36.97;;;4.30;99.90;;;;;;5025815;28;20459;-77
2021/01/11 09:22:57;;;;;;;78.70;37.20;;;4.30;99.90;;;;;;5023518;28;20041;-78
2021/01/11 09:25:24;;;;;;;70.05;34.10;;;4.30;99.90;;;;;;5028032;28;20071;-82
2021/01/11 09:27:50;;;;;;;63.30;31.45;;;4.30;99.90;;;;;;5028566;28;20037;-82
2021/01/11 09:30:16;;;;;;;81.00;37.50;;;4.40;99.90;;;;;;5029978;28;20123;-80
2021/01/11 09:32:45;;;;;;;78.13;38.30;;;4.40;99.90;;;;;;5021532;28;20056;-78
2021/01/11 09:35:15;;;;;;;69.70;35.22;;;4.30;99.90;;;;;;5028027;28;20084;-79
2021/01/11 09:37:41;;;;;;;78.97;38.10;;;4.30;99.90;;;;;;5041360;28;20156;-78
2021/01/11 09:40:08;;;;;;;66.25;34.30;;;4.40;99.90;;;;;;5010344;28;20080;-78
2021/01/11 09:42:35;;;;;;;70.15;35.53;;;4.40;99.90;;;;;;5028143;28;20032;-77
2021/01/11 09:45:01;;;;;;;72.32;36.38;;;4.40;99.90;;;;;;5028628;28;20030;-78
2021/01/11 09:47:27;;;;;;;71.90;35.17;;;4.40;99.90;;;;;;5026051;28;20057;-77
2021/01/11 09:49:53;;;;;;;68.18;35.92;;;4.40;99.90;;;;;;5027523;28;20145;-81
2021/01/11 09:52:19;;;;;;;68.10;34.22;;;4.40;99.90;;;;;;5024778;28;20602;-79
2021/01/11 09:54:44;;;;;;;69.43;35.53;;;4.50;99.90;;;;;;5028691;28;20137;-79
2021/01/11 09:57:11;;;;;;;67.40;35.10;;;4.40;99.90;;;;;;5028403;28;20065;-78
2021/01/11 09:59:38;;;;;;;63.72;33.60;;;4.50;99.90;;;;;;5026975;28;20412;-75
2021/01/11 10:02:04;;;;;;;59.00;32.15;;;4.50;99.90;;;;;;5024142;28;20029;-78
2021/01/11 10:04:30;;;;;;;70.25;33.25;;;4.60;99.90;;;;;;5028738;28;20041;-78
2021/01/11 10:06:57;;;;;;;63.08;31.45;;;4.60;99.90;;;;;;5033039;28;20507;-79
2021/01/11 10:09:25;;;;;;;58.72;31.40;;;4.60;99.90;;;;;;5026614;28;20037;-80
2021/01/11 10:12:04;;;;;;;47.92;27.17;;;4.60;99.90;;;;;;5023848;28;20088;-79
2021/01/11 10:14:31;;;;;;;48.88;26.05;;;4.60;99.90;;;;;;5007884;28;20057;-80
2021/01/11 10:16:57;;;;;;;47.50;26.13;;;4.70;99.90;;;;;;5026050;28;20080;-76
2021/01/11 10:19:25;;;;;;;42.88;23.48;;;4.70;99.90;;;;;;5028211;28;20053;-78
2021/01/11 10:21:51;;;;;;;41.80;23.05;;;4.80;99.90;;;;;;5022377;28;20046;-78
2021/01/11 10:24:19;;;;;;;40.15;23.88;;;4.80;99.90;;;;;;5029230;28;20049;-77
2021/01/11 10:26:49;;;;;;;36.28;22.70;;;4.80;99.90;;;;;;5028874;28;20477;-78
2021/01/11 10:29:22;;;;;;;36.22;21.23;;;4.90;99.90;;;;;;5027675;28;20033;-78
2021/01/11 10:31:47;;;;;;;35.55;19.73;;;4.90;99.90;;;;;;5023458;28;20041;-77
2021/01/11 10:34:16;;;;;;;34.28;21.55;;;4.90;99.90;;;;;;5030373;28;20103;-78
2021/01/11 10:36:45;;;;;;;33.50;20.25;;;4.90;99.90;;;;;;5036375;28;20068;-77
2021/01/11 10:39:12;;;;;;;31.75;18.73;;;4.90;99.90;;;;;;5030772;28;20037;-78
2021/01/11 10:41:38;;;;;;;34.38;17.67;;;5.00;99.90;;;;;;5029476;28;20049;-76
2021/01/11 10:44:06;;;;;;;29.63;18.75;;;5.00;99.90;;;;;;5010935;28;20088;-78
2021/01/11 10:46:33;;;;;;;34.08;18.83;;;5.10;99.90;;;;;;5030368;28;20527;-76
2021/01/11 10:48:59;;;;;;;26.73;16.20;;;5.10;99.90;;;;;;5029697;28;20041;-78
2021/01/11 10:51:25;;;;;;;30.63;16.23;;;5.10;99.90;;;;;;5045448;28;20127;-79
2021/01/11 10:53:51;;;;;;;22.35;13.32;;;5.10;99.90;;;;;;5031507;28;20128;-76
2021/01/11 10:56:18;;;;;;;26.77;14.48;;;5.20;99.90;;;;;;5029199;28;20132;-76
2021/01/11 10:58:44;;;;;;;30.55;16.90;;;5.20;99.90;;;;;;5028812;28;20465;-77
2021/01/11 11:01:19;;;;;;;;;;;5.30;99.90;;;;;;5031460;28;20618;-78
2021/01/11 11:03:45;;;;;;;25.15;15.10;;;5.30;99.90;;;;;;5031254;28;19964;-75
2021/01/11 11:06:12;;;;;;;26.67;15.40;;;5.30;99.90;;;;;;5030415;28;20057;-76
2021/01/11 11:08:39;;;;;;;26.80;14.43;;;5.40;99.90;;;;;;5013378;28;20449;-77
2021/01/11 11:11:05;;;;;;;26.52;14.45;;;5.40;99.90;;;;;;5031622;28;20045;-79
2021/01/11 11:13:31;;;;;;;19.83;12.90;;;5.50;99.90;;;;;;5029931;28;20091;-77
2021/01/11 11:15:58;;;;;;;23.70;13.15;;;5.50;99.90;;;;;;5025123;28;20118;-78
2021/01/11 11:18:24;;;;;;;19.10;12.65;;;5.50;99.90;;;;;;5010224;28;20100;-77
2021/01/11 11:20:50;;;;;;;23.90;13.73;;;5.50;99.90;;;;;;5028290;28;20057;-78
2021/01/11 11:23:16;;;;;;;22.45;12.98;;;5.60;99.90;;;;;;5031602;28;20044;-79
2021/01/11 11:25:43;;;;;;;24.00;12.80;;;5.60;99.90;;;;;;5029977;28;20435;-78
2021/01/11 11:28:09;;;;;;;27.30;13.95;;;5.60;99.90;;;;;;5031169;28;20043;-76
2021/01/11 11:30:35;;;;;;;30.35;15.15;;;5.60;99.90;;;;;;5030892;28;20061;-76
2021/01/11 11:33:00;;;;;;;27.02;15.43;;;5.60;99.90;;;;;;5029283;28;20476;-77
2021/01/11 11:35:26;;;;;;;24.05;14.15;;;5.60;99.90;;;;;;5029786;28;20041;-78
2021/01/11 11:37:52;;;;;;;28.30;15.02;;;5.60;99.90;;;;;;5030303;28;20044;-77
2021/01/11 11:40:19;;;;;;;27.23;14.80;;;5.60;99.90;;;;;;5030006;28;20048;-77
2021/01/11 11:42:45;;;;;;;20.42;13.77;;;5.60;99.90;;;;;;5030294;28;20508;-76
2021/01/11 11:45:14;;;;;;;32.72;15.65;;;5.60;99.90;;;;;;5030686;28;20048;-78
2021/01/11 11:47:42;;;;;;;25.80;15.35;;;5.50;99.90;;;;;;5029265;28;20801;-77
2021/01/11 11:50:10;;;;;;;23.95;14.50;;;5.50;99.90;;;;;;5046279;28;20045;-76
2021/01/11 11:52:37;;;;;;;24.15;16.40;;;5.50;99.90;;;;;;5020134;28;20140;-76
2021/01/11 11:55:06;;;;;;;35.47;16.15;;;5.50;99.90;;;;;;5012851;28;20530;-79
2021/01/11 11:57:33;;;;;;;25.85;16.38;;;5.50;99.90;;;;;;5031309;28;20049;-79
2021/01/11 11:59:59;;;;;;;25.10;14.70;;;5.40;99.90;;;;;;5028897;28;20080;-77
2021/01/11 12:02:31;;;;;;;24.10;15.13;;;5.40;99.90;;;;;;5012378;28;20096;-77
2021/01/11 12:04:57;;;;;;;23.95;15.63;;;5.40;99.90;;;;;;5023844;28;20420;-80
2021/01/11 12:07:24;;;;;;;23.25;15.52;;;5.40;99.90;;;;;;5028360;28;20040;-79
2021/01/11 12:09:53;;;;;;;26.58;14.60;;;5.50;99.90;;;;;;5024219;28;20049;-77
2021/01/11 12:12:19;;;;;;;22.23;12.65;;;5.50;99.90;;;;;;5026287;28;20053;-78
2021/01/11 12:14:45;;;;;;;25.38;13.70;;;5.50;99.90;;;;;;5025192;28;20129;-80
2021/01/11 12:17:11;;;;;;;23.60;13.98;;;5.50;99.90;;;;;;5027946;28;20104;-79
2021/01/11 12:19:37;;;;;;;22.83;14.05;;;5.50;99.90;;;;;;5009701;28;20053;-79
2021/01/11 12:22:12;;;;;;;23.10;13.05;;;5.50;99.90;;;;;;5026506;28;20056;-78
2021/01/11 12:24:38;;;;;;;26.33;15.48;;;5.40;99.90;;;;;;5026872;28;20053;-80
2021/01/11 12:27:05;;;;;;;22.10;15.25;;;5.40;99.90;;;;;;5027465;28;20050;-78
2021/01/11 12:29:32;;;;;;;23.15;15.43;;;5.40;99.90;;;;;;5011010;28;20123;-80
2021/01/11 12:32:05;;;;;;;21.35;14.93;;;5.30;99.90;;;;;;5023967;28;20083;-79
2021/01/11 12:34:39;;;;;;;23.33;15.65;;;5.30;99.90;;;;;;5026423;28;20408;-78
2021/01/11 12:37:26;;;;;;;24.73;15.55;;;5.30;99.90;;;;;;5025482;28;20132;-81
2021/01/11 12:40:16;;;;;;;28.63;15.93;;;5.20;99.90;;;;;;5045563;28;20049;-79
2021/01/11 12:42:47;;;;;;;28.15;15.60;;;5.20;99.90;;;;;;5026377;28;20054;-79
2021/01/11 12:45:29;;;;;;;21.30;12.88;;;5.20;99.90;;;;;;5013654;28;20057;-81
2021/01/11 12:47:56;;;;;;;26.50;14.23;;;5.20;99.90;;;;;;5028653;28;20091;-81